Impacts TAF Board
For situational awareness. Not to be used for flight planning purposes.
IDs:

KBOS - Boston/Logan Intl, MA, US

Issued at 2022 UTC 19 May 2019
Updated at 2037 UTC 19 May 2019
Potential Impact None Slight Moderate High
Time<<20/09Z 20/10Z 20/11Z 20/12Z 20/13Z 20/14Z 20/15Z 20/16Z 20/17Z 20/18Z 20/19Z 20/20Z 20/21Z>>
Type PRVL PRVL PRVL PRVL PRVL PRVL PRVL PRVL PRVL PRVL PRVL PRVL PRVL
VIS 5 5 5 5 5 >6 >6 >6 >6 >6 >6 >6 >6
CIG 3 3 3 3 3 20 20 20 20 20 20 20 50
Cover OVC OVC OVC OVC OVC BKN BKN BKN BKN BKN BKN BKN BKN
FltCat LIFR LIFR LIFR LIFR LIFR MVFR MVFR MVFR MVFR MVFR MVFR MVFR VFR
WX BR VCSH BR VCSH BR VCSH BR VCSH BR VCSH -- -- -- -- -- -- -- VCSH
WDir 210 210 210 210 210 220 220 220 220 220 220 220 210
WSpd 13 13 13 13 13 11 11 11 11 11 11 11 15
WGst -- -- -- -- -- -- -- -- -- -- -- -- 23
Raw TAF
KBOS 192022Z 1920/2024 20015G24KT P6SM SCT250
  FM200200 21012KT P6SM BKN020
  FM200600 21011KT 2SM BR VCSH OVC003
  FM200800 21013KT 5SM BR VCSH OVC003
  FM201400 22011KT P6SM BKN020
  FM202100 21015G23KT P6SM VCSH BKN050


METAR Board
Radar Display
Forecast Discussion
For situational awareness. Not to be used for flight planning purposes.